createdAt,value
2023-05-17T00:00:21.570Z,5.10
2023-05-17T00:01:53.858Z,5.32
2023-05-17T00:03:26.274Z,4.95
2023-05-17T00:04:58.582Z,5.57
2023-05-17T00:06:32.164Z,4.65
2023-05-17T00:08:04.460Z,4.63
2023-05-17T00:09:36.557Z,4.45
2023-05-17T00:11:08.682Z,4.63
2023-05-17T00:12:40.876Z,4.53
2023-05-17T00:14:13.243Z,5.18
2023-05-17T00:15:45.399Z,5.55
2023-05-17T00:17:17.963Z,5.38
2023-05-17T00:18:50.335Z,5.20
2023-05-17T00:20:22.711Z,5.47
2023-05-17T00:21:54.829Z,5.22
2023-05-17T00:24:59.792Z,5.05
2023-05-17T00:26:32.038Z,5.50
2023-05-17T00:28:04.256Z,5.38
2023-05-17T00:29:36.498Z,4.47
2023-05-17T00:31:08.648Z,4.38
2023-05-17T00:32:40.816Z,4.40
2023-05-17T00:34:13.013Z,4.70
2023-05-17T00:35:45.095Z,4.65
2023-05-17T00:37:17.185Z,5.15
2023-05-17T00:38:49.418Z,5.95
2023-05-17T00:40:21.673Z,5.18
2023-05-17T00:41:53.897Z,4.82
2023-05-17T00:43:26.696Z,5.28
2023-05-17T00:44:58.794Z,6.53
2023-05-17T00:46:31.065Z,8.45
2023-05-17T00:48:03.285Z,7.28
2023-05-17T00:49:35.592Z,8.55
2023-05-17T00:51:07.912Z,9.10
2023-05-17T00:52:40.394Z,8.18
2023-05-17T00:54:12.908Z,8.15
2023-05-17T00:55:45.242Z,8.80
2023-05-17T00:58:53.869Z,8.63
2023-05-17T01:01:58.969Z,7.70
2023-05-17T01:03:31.175Z,7.10
2023-05-17T01:05:03.982Z,6.25
2023-05-17T01:06:37.102Z,6.40
2023-05-17T01:08:09.255Z,7.18
2023-05-17T01:09:41.834Z,7.88
2023-05-17T01:11:35.864Z,7.38
2023-05-17T01:13:24.250Z,8.00
2023-05-17T01:15:14.441Z,7.72
2023-05-17T01:16:55.029Z,7.93
2023-05-17T01:18:49.690Z,7.40
2023-05-17T01:20:28.451Z,7.35
2023-05-17T01:22:17.159Z,7.68
2023-05-17T01:23:59.728Z,7.63
2023-05-17T01:25:40.872Z,7.68
2023-05-17T01:27:14.364Z,7.38
2023-05-17T01:28:49.509Z,7.53
2023-05-17T01:30:23.373Z,7.47
2023-05-17T01:31:57.299Z,8.05
2023-05-17T01:33:30.514Z,7.18
2023-05-17T01:35:05.864Z,7.53
2023-05-17T01:36:38.128Z,7.57
2023-05-17T01:38:10.305Z,7.78
2023-05-17T01:39:42.422Z,7.07
2023-05-17T01:41:27.270Z,7.32
2023-05-17T01:43:13.657Z,7.57
2023-05-17T01:45:04.040Z,7.88
2023-05-17T01:46:43.416Z,10.82
2023-05-17T01:48:22.344Z,11.57
2023-05-17T01:49:54.862Z,12.35
2023-05-17T01:51:29.780Z,12.07
2023-05-17T01:53:22.773Z,11.95
2023-05-17T01:55:06.320Z,12.35
2023-05-17T01:56:42.833Z,12.10
2023-05-17T01:58:15.394Z,12.18
2023-05-17T01:59:49.088Z,12.15
2023-05-17T02:01:22.132Z,10.65
2023-05-17T02:02:54.260Z,11.43
2023-05-17T02:04:26.509Z,11.85
2023-05-17T02:05:58.619Z,12.00
2023-05-17T02:07:31.429Z,12.30
2023-05-17T02:09:03.615Z,10.57
2023-05-17T02:10:35.980Z,13.05
2023-05-17T02:12:08.432Z,12.57
2023-05-17T02:13:40.956Z,13.55
2023-05-17T02:15:14.190Z,13.15
2023-05-17T02:16:46.253Z,12.57
2023-05-17T02:18:18.434Z,13.38
2023-05-17T02:19:51.003Z,13.57
2023-05-17T02:21:23.188Z,12.70
2023-05-17T02:22:55.325Z,14.65
2023-05-17T02:24:27.472Z,13.50
2023-05-17T02:25:59.669Z,12.02
2023-05-17T02:27:31.949Z,12.57
2023-05-17T02:29:04.113Z,12.75
2023-05-17T02:30:36.311Z,12.85
2023-05-17T02:32:08.479Z,13.32
2023-05-17T02:33:40.745Z,13.65
2023-05-17T02:35:13.018Z,14.10
2023-05-17T02:36:45.117Z,13.65
2023-05-17T02:38:17.255Z,14.75
2023-05-17T02:39:49.365Z,13.82
2023-05-17T02:41:21.763Z,13.30
2023-05-17T02:42:54.271Z,13.93
2023-05-17T02:44:26.462Z,13.73
2023-05-17T02:45:58.678Z,13.57
2023-05-17T02:47:30.864Z,13.25
2023-05-17T02:49:03.204Z,12.57
2023-05-17T02:50:35.499Z,12.77
2023-05-17T02:52:07.917Z,12.95
2023-05-17T02:53:40.058Z,13.63
2023-05-17T02:55:12.358Z,12.65
2023-05-17T02:56:44.516Z,12.77
2023-05-17T02:58:16.667Z,12.82
2023-05-17T02:59:48.898Z,13.73
2023-05-17T03:01:21.003Z,13.20
2023-05-17T03:02:53.351Z,13.05
2023-05-17T03:04:25.799Z,13.65
2023-05-17T03:06:05.617Z,14.18
2023-05-17T03:07:37.781Z,14.23
2023-05-17T03:09:09.900Z,13.23
2023-05-17T03:10:42.179Z,13.50
2023-05-17T03:12:14.327Z,13.50
2023-05-17T03:13:52.112Z,14.27
2023-05-17T03:15:27.125Z,13.30
2023-05-17T03:16:59.719Z,12.93
2023-05-17T03:18:32.104Z,11.70
2023-05-17T03:20:08.346Z,12.50
2023-05-17T03:21:40.589Z,11.73
2023-05-17T03:23:12.841Z,12.55
2023-05-17T03:24:48.109Z,11.77
2023-05-17T03:26:20.279Z,11.60
2023-05-17T03:27:52.458Z,12.07
2023-05-17T03:29:24.760Z,12.60
2023-05-17T03:30:57.100Z,13.73
2023-05-17T03:32:29.554Z,11.75
2023-05-17T03:34:02.245Z,12.25
2023-05-17T03:35:34.685Z,11.98
2023-05-17T03:37:06.829Z,12.95
2023-05-17T03:38:38.954Z,12.32
2023-05-17T03:40:13.154Z,11.80
2023-05-17T03:41:48.296Z,12.65
2023-05-17T03:43:20.737Z,12.40
2023-05-17T03:44:52.855Z,11.10
2023-05-17T03:46:25.110Z,11.40
2023-05-17T03:47:57.324Z,12.15
2023-05-17T03:49:29.539Z,11.55
2023-05-17T03:51:02.141Z,11.27
2023-05-17T03:52:34.324Z,11.90
2023-05-17T03:54:06.697Z,11.18
2023-05-17T03:55:38.929Z,11.13
2023-05-17T03:57:11.159Z,10.77
2023-05-17T03:58:43.340Z,11.18
2023-05-17T04:00:21.604Z,10.98
2023-05-17T04:01:54.383Z,11.57
2023-05-17T04:03:26.698Z,11.38
2023-05-17T04:04:58.917Z,11.65
2023-05-17T04:06:31.168Z,12.70
2023-05-17T04:08:03.472Z,11.88
2023-05-17T04:09:35.771Z,13.55
2023-05-17T04:12:59.780Z,13.70
2023-05-17T04:14:32.146Z,12.98
2023-05-17T04:16:04.809Z,13.80
2023-05-17T04:17:37.130Z,15.00
2023-05-17T04:19:09.416Z,15.90
2023-05-17T04:20:41.752Z,14.02
2023-05-17T04:22:13.913Z,13.93
2023-05-17T04:23:46.244Z,13.70
2023-05-17T04:25:18.940Z,13.93
2023-05-17T04:26:51.441Z,14.52
2023-05-17T04:28:23.703Z,14.93
2023-05-17T04:29:56.608Z,14.25
2023-05-17T04:31:28.727Z,15.38
2023-05-17T04:33:01.547Z,15.65
2023-05-17T04:34:33.827Z,16.02
2023-05-17T04:36:06.200Z,15.40
2023-05-17T04:37:40.728Z,15.93
2023-05-17T04:39:12.998Z,15.88
2023-05-17T04:40:45.118Z,15.65
2023-05-17T04:42:17.453Z,16.20
2023-05-17T04:43:52.309Z,16.38
2023-05-17T04:45:25.572Z,16.15
2023-05-17T04:48:31.746Z,16.05
2023-05-17T04:50:05.174Z,16.50
2023-05-17T04:53:12.568Z,16.98
2023-05-17T04:54:44.814Z,17.23
2023-05-17T04:56:17.052Z,16.52
2023-05-17T04:57:49.307Z,16.73
2023-05-17T04:59:21.614Z,16.60
2023-05-17T05:00:53.818Z,17.23
2023-05-17T05:02:26.160Z,16.13
2023-05-17T05:03:59.412Z,15.77
2023-05-17T05:07:07.028Z,14.45
2023-05-17T05:08:39.258Z,15.15
2023-05-17T05:10:13.891Z,15.57
2023-05-17T05:11:46.480Z,15.07
2023-05-17T05:13:18.620Z,14.77
2023-05-17T05:14:50.966Z,15.70
2023-05-17T05:16:23.189Z,15.55
2023-05-17T05:17:55.410Z,15.10
2023-05-17T05:19:27.572Z,14.50
2023-05-17T05:21:02.700Z,14.90
2023-05-17T05:22:34.934Z,15.30
2023-05-17T05:24:07.499Z,15.85
2023-05-17T05:25:39.643Z,15.13
2023-05-17T05:27:13.500Z,14.65
2023-05-17T05:28:45.885Z,14.30
2023-05-17T05:30:22.650Z,14.20
2023-05-17T05:31:54.968Z,12.88
2023-05-17T05:33:27.775Z,12.73
2023-05-17T05:35:00.199Z,12.23
2023-05-17T05:36:32.449Z,13.18
2023-05-17T05:38:04.626Z,11.82
2023-05-17T05:39:37.017Z,13.13
2023-05-17T05:41:09.457Z,13.63
2023-05-17T05:42:41.819Z,11.97
2023-05-17T05:44:13.999Z,11.85
2023-05-17T05:45:47.749Z,12.18
2023-05-17T05:47:19.915Z,12.63
2023-05-17T05:48:52.172Z,12.95
2023-05-17T05:50:24.409Z,14.15
2023-05-17T05:51:56.657Z,14.77
2023-05-17T05:53:28.745Z,13.98
2023-05-17T05:55:00.993Z,14.73
2023-05-17T05:56:33.138Z,13.70
2023-05-17T05:58:05.306Z,13.57
2023-05-17T05:59:37.537Z,13.05
2023-05-17T06:02:46.841Z,13.63
2023-05-17T06:04:21.028Z,12.25
2023-05-17T06:05:55.298Z,12.07
2023-05-17T06:07:27.493Z,13.88
2023-05-17T06:08:59.881Z,13.68
2023-05-17T06:10:32.281Z,12.53
2023-05-17T06:12:04.628Z,13.35
2023-05-17T06:13:36.833Z,12.77
2023-05-17T06:15:09.504Z,12.90
2023-05-17T06:16:41.900Z,12.88
2023-05-17T06:18:14.096Z,12.70
2023-05-17T06:19:46.535Z,12.45
2023-05-17T06:21:18.948Z,12.07
2023-05-17T06:22:51.215Z,11.63
2023-05-17T06:24:23.383Z,12.27
2023-05-17T06:25:56.183Z,11.90
2023-05-17T06:27:28.337Z,11.95
2023-05-17T06:29:00.436Z,11.75
2023-05-17T06:32:05.774Z,13.52
2023-05-17T06:33:38.054Z,12.75
2023-05-17T06:35:11.059Z,12.05
2023-05-17T06:36:43.509Z,12.98
2023-05-17T06:38:15.829Z,12.73
2023-05-17T06:39:55.763Z,12.55
2023-05-17T06:41:32.244Z,11.10
2023-05-17T06:43:04.365Z,12.90
2023-05-17T06:44:36.495Z,12.30
2023-05-17T06:46:08.719Z,12.90
2023-05-17T06:47:41.086Z,13.13
2023-05-17T06:49:13.333Z,11.53
2023-05-17T06:50:45.500Z,11.55
2023-05-17T06:52:18.004Z,11.40
2023-05-17T06:53:50.789Z,11.60
2023-05-17T06:55:23.037Z,11.52
2023-05-17T06:56:55.313Z,11.25
2023-05-17T06:58:27.456Z,11.07
2023-05-17T07:01:37.196Z,10.88
2023-05-17T07:03:09.433Z,11.77
2023-05-17T07:04:41.708Z,11.43
2023-05-17T07:06:13.880Z,11.13
2023-05-17T07:07:46.085Z,11.13
2023-05-17T07:09:22.020Z,10.45
2023-05-17T07:10:54.509Z,11.20
2023-05-17T07:12:26.706Z,10.68
2023-05-17T07:13:58.940Z,10.88
2023-05-17T07:15:31.342Z,10.73
2023-05-17T07:17:03.769Z,10.63
2023-05-17T07:18:36.000Z,11.55
2023-05-17T07:20:09.413Z,11.57
2023-05-17T07:21:42.283Z,10.43
2023-05-17T07:23:14.470Z,10.73
2023-05-17T07:24:47.029Z,11.10
2023-05-17T07:26:22.461Z,11.53
2023-05-17T07:27:54.651Z,11.23
2023-05-17T07:29:26.750Z,11.60
2023-05-17T07:30:58.921Z,11.35
2023-05-17T07:32:31.083Z,11.68
2023-05-17T07:34:03.495Z,12.70
2023-05-17T07:35:37.769Z,11.80
2023-05-17T07:37:09.998Z,11.15
2023-05-17T07:38:42.212Z,12.10
2023-05-17T07:40:17.739Z,11.15
2023-05-17T07:41:49.957Z,10.30
2023-05-17T07:43:22.174Z,12.63
2023-05-17T07:44:54.517Z,10.70
2023-05-17T07:46:26.758Z,10.68
2023-05-17T07:47:59.150Z,10.73
2023-05-17T07:49:31.797Z,11.32
2023-05-17T07:51:04.086Z,11.00
2023-05-17T07:52:36.261Z,10.77
2023-05-17T07:54:08.406Z,11.07
2023-05-17T07:55:40.528Z,10.27
2023-05-17T07:57:12.757Z,10.38
2023-05-17T07:58:44.846Z,10.65
2023-05-17T08:00:19.623Z,10.02
2023-05-17T08:01:52.368Z,9.82
2023-05-17T08:03:24.611Z,10.23
2023-05-17T08:04:56.805Z,9.60
2023-05-17T08:06:29.069Z,9.63
2023-05-17T08:08:01.606Z,10.13
2023-05-17T08:09:33.764Z,9.90
2023-05-17T08:11:06.043Z,9.43
2023-05-17T08:12:38.208Z,9.30
2023-05-17T08:14:10.371Z,9.02
2023-05-17T08:15:42.637Z,9.32
2023-05-17T08:17:14.804Z,9.18
2023-05-17T08:18:48.614Z,9.32
2023-05-17T08:20:20.915Z,10.20
2023-05-17T08:21:53.115Z,9.57
2023-05-17T08:23:25.676Z,8.88
2023-05-17T08:24:57.871Z,8.55
2023-05-17T08:26:30.052Z,9.77
2023-05-17T08:28:02.908Z,9.20
2023-05-17T08:29:36.103Z,9.68
2023-05-17T08:31:09.009Z,8.77
2023-05-17T08:32:41.561Z,8.80
2023-05-17T08:34:13.895Z,8.27
2023-05-17T08:35:49.884Z,7.90
2023-05-17T08:37:22.252Z,9.00
2023-05-17T08:38:54.555Z,7.82
2023-05-17T08:40:28.234Z,7.75
2023-05-17T08:42:02.086Z,8.15
2023-05-17T08:43:35.161Z,8.38
2023-05-17T08:45:08.920Z,8.32
2023-05-17T08:46:41.970Z,8.05
2023-05-17T08:48:14.346Z,8.23
2023-05-17T08:49:48.251Z,8.40
2023-05-17T08:51:20.803Z,8.00
2023-05-17T08:52:53.351Z,8.25
2023-05-17T08:54:25.606Z,7.93
2023-05-17T08:56:05.129Z,8.40
2023-05-17T08:57:38.316Z,8.27
2023-05-17T08:59:14.072Z,8.43
2023-05-17T09:00:47.639Z,8.73
2023-05-17T09:02:19.972Z,7.28
2023-05-17T09:03:52.319Z,8.73
2023-05-17T09:05:24.601Z,8.53
2023-05-17T09:06:56.923Z,8.75
2023-05-17T09:08:30.584Z,8.23
2023-05-17T09:10:06.122Z,8.70
2023-05-17T09:11:38.989Z,8.75
2023-05-17T09:13:12.894Z,8.23
2023-05-17T09:14:45.110Z,7.57
2023-05-17T09:16:18.083Z,8.63
2023-05-17T09:17:57.841Z,7.43
2023-05-17T09:19:31.299Z,8.07
2023-05-17T09:21:05.185Z,8.43
2023-05-17T09:22:37.736Z,7.60
2023-05-17T09:24:09.945Z,7.47
2023-05-17T09:25:51.281Z,8.18
2023-05-17T09:27:24.056Z,8.20
2023-05-17T09:28:56.229Z,7.65
2023-05-17T09:30:33.055Z,7.80
2023-05-17T09:32:18.972Z,7.97
2023-05-17T09:33:51.480Z,8.13
2023-05-17T09:35:32.624Z,7.63
2023-05-17T09:37:04.999Z,8.13
2023-05-17T09:38:37.479Z,7.57
2023-05-17T09:40:09.999Z,7.55
2023-05-17T09:41:51.611Z,7.97
2023-05-17T09:43:26.394Z,7.65
2023-05-17T09:44:58.528Z,7.43
2023-05-17T09:46:37.795Z,7.28
2023-05-17T09:48:19.688Z,8.15
2023-05-17T09:49:52.214Z,7.78
2023-05-17T09:51:37.173Z,7.63
2023-05-17T09:53:38.804Z,7.28
2023-05-17T09:55:12.313Z,7.57
2023-05-17T10:04:38.614Z,7.93
2023-05-17T10:06:19.671Z,7.00
2023-05-17T10:08:00.347Z,7.75
2023-05-17T10:09:36.100Z,8.35
2023-05-17T10:11:11.808Z,8.13
2023-05-17T10:12:44.733Z,8.30
2023-05-17T10:14:24.736Z,7.65
2023-05-17T10:15:57.255Z,7.63
2023-05-17T10:17:32.742Z,7.63
2023-05-17T10:19:05.805Z,7.93
2023-05-17T10:20:38.902Z,7.78
2023-05-17T10:23:51.502Z,8.27
2023-05-17T10:25:24.318Z,7.45
2023-05-17T10:26:57.328Z,8.50
2023-05-17T10:28:30.990Z,8.18
2023-05-17T10:30:03.631Z,7.75
2023-05-17T10:31:36.888Z,8.15
2023-05-17T10:34:42.396Z,7.75
2023-05-17T10:36:17.829Z,8.60
2023-05-17T10:37:50.054Z,8.27
2023-05-17T10:39:22.666Z,8.57
2023-05-17T10:40:55.708Z,9.02
2023-05-17T10:42:28.421Z,9.05
2023-05-17T10:44:03.024Z,8.27
2023-05-17T10:45:37.391Z,9.10
2023-05-17T10:47:10.416Z,7.85
2023-05-17T10:48:43.383Z,8.23
2023-05-17T10:50:23.132Z,8.05
2023-05-17T10:51:55.415Z,7.35
2023-05-17T10:53:27.606Z,8.10
2023-05-17T10:55:00.287Z,7.78
2023-05-17T10:56:33.225Z,7.78
2023-05-17T10:58:27.204Z,7.47
2023-05-17T11:00:02.114Z,7.80
2023-05-17T11:02:04.531Z,7.95
2023-05-17T11:03:39.073Z,7.90
2023-05-17T11:05:25.375Z,8.98
2023-05-17T11:07:22.377Z,9.10
2023-05-17T11:09:16.680Z,9.13
2023-05-17T11:12:42.557Z,8.68
2023-05-17T11:14:15.465Z,10.25
2023-05-17T11:16:04.161Z,10.95
2023-05-17T11:17:52.373Z,10.55
2023-05-17T11:19:24.792Z,12.23
2023-05-17T11:21:23.232Z,10.73
2023-05-17T11:23:06.847Z,11.57
2023-05-17T11:24:44.327Z,10.07
2023-05-17T11:26:19.205Z,11.88
2023-05-17T11:27:52.804Z,10.98
2023-05-17T11:29:30.137Z,12.02
2023-05-17T11:31:02.278Z,12.45
2023-05-17T11:32:34.564Z,11.93
2023-05-17T11:34:07.168Z,10.38
2023-05-17T11:35:40.101Z,10.55
2023-05-17T11:37:12.464Z,10.77
2023-05-17T11:38:45.453Z,10.25
2023-05-17T11:40:29.134Z,11.48
2023-05-17T11:42:02.615Z,11.93
2023-05-17T11:43:35.865Z,12.05
2023-05-17T11:45:09.211Z,11.93
2023-05-17T11:48:14.436Z,10.65
2023-05-17T11:49:47.640Z,10.30
2023-05-17T11:51:22.882Z,10.00
2023-05-17T11:56:15.580Z,10.13
2023-05-17T11:57:48.257Z,10.52
2023-05-17T11:59:21.174Z,10.18
2023-05-17T12:00:54.858Z,10.23
2023-05-17T12:02:31.167Z,11.50
2023-05-17T12:04:04.273Z,11.93
2023-05-17T12:05:36.801Z,11.63
2023-05-17T12:07:11.131Z,10.95
2023-05-17T12:08:47.229Z,10.57
2023-05-17T12:10:19.425Z,10.50
2023-05-17T12:11:51.650Z,11.10
2023-05-17T12:13:23.978Z,11.38
2023-05-17T12:14:56.348Z,12.10
2023-05-17T12:16:30.361Z,12.77
2023-05-17T12:18:02.543Z,12.43
2023-05-17T12:19:34.957Z,12.85
2023-05-17T12:21:08.701Z,14.18
2023-05-17T12:22:59.600Z,14.68
2023-05-17T12:24:40.887Z,16.90
2023-05-17T12:26:17.842Z,17.33
2023-05-17T12:27:51.243Z,16.67
2023-05-17T12:30:58.830Z,15.48
2023-05-17T12:32:31.163Z,14.25
2023-05-17T12:34:06.044Z,12.97
2023-05-17T12:35:38.514Z,13.15
2023-05-17T12:37:13.632Z,14.50
2023-05-17T12:38:47.582Z,13.70
2023-05-17T12:40:19.883Z,14.50
2023-05-17T12:41:53.669Z,13.80
2023-05-17T12:43:25.924Z,13.02
2023-05-17T12:45:00.808Z,20.52
2023-05-17T12:46:33.132Z,15.52
2023-05-17T12:48:05.634Z,17.23
2023-05-17T12:49:40.948Z,18.25
2023-05-17T12:51:17.133Z,12.95
2023-05-17T12:52:49.488Z,13.88
2023-05-17T12:54:24.639Z,14.20
2023-05-17T12:55:59.860Z,16.40
2023-05-17T12:57:32.204Z,15.30
2023-05-17T12:59:10.938Z,14.82
2023-05-17T13:00:57.752Z,17.02
2023-05-17T13:02:30.019Z,15.52
2023-05-17T13:04:03.191Z,14.60
2023-05-17T13:05:35.482Z,14.55
2023-05-17T13:07:07.632Z,14.18
2023-05-17T13:08:41.224Z,14.32
2023-05-17T13:10:40.564Z,14.32
2023-05-17T13:12:12.887Z,14.75
2023-05-17T13:13:44.971Z,14.60
2023-05-17T13:15:17.172Z,14.80
2023-05-17T13:16:49.398Z,15.18
2023-05-17T13:18:23.401Z,14.05
2023-05-17T13:19:58.334Z,14.85
2023-05-17T13:21:31.376Z,14.27
2023-05-17T13:23:06.929Z,14.00
2023-05-17T13:24:40.325Z,14.38
2023-05-17T13:26:13.430Z,14.73
2023-05-17T13:27:49.822Z,13.43
2023-05-17T13:29:35.319Z,14.05
2023-05-17T13:31:10.787Z,14.90
2023-05-17T13:32:43.734Z,14.40
2023-05-17T13:34:15.903Z,15.02
2023-05-17T13:35:48.034Z,14.48
2023-05-17T13:37:21.534Z,14.65
2023-05-17T13:38:53.716Z,15.30
2023-05-17T13:40:25.889Z,15.80
2023-05-17T13:41:58.373Z,16.20
2023-05-17T13:43:30.609Z,16.35
2023-05-17T13:45:03.068Z,17.30
2023-05-17T13:46:35.358Z,16.13
2023-05-17T13:48:08.066Z,16.23
2023-05-17T13:49:40.394Z,16.15
2023-05-17T13:51:12.623Z,15.30
2023-05-17T13:52:45.056Z,15.27
2023-05-17T13:54:18.522Z,15.40
2023-05-17T13:55:50.707Z,15.57
2023-05-17T13:57:23.170Z,15.10
2023-05-17T13:58:55.403Z,15.07
2023-05-17T14:00:27.768Z,16.20
2023-05-17T14:02:00.009Z,15.43
2023-05-17T14:03:32.421Z,16.05
2023-05-17T14:05:07.643Z,15.30
2023-05-17T14:06:39.934Z,15.70
2023-05-17T14:08:13.225Z,15.48
2023-05-17T14:11:17.299Z,15.88
2023-05-17T14:12:49.554Z,16.48
2023-05-17T14:14:21.755Z,15.70
2023-05-17T14:15:54.005Z,15.88
2023-05-17T14:17:26.247Z,15.50
2023-05-17T14:18:59.391Z,16.45
2023-05-17T14:20:33.575Z,16.75
2023-05-17T14:22:05.829Z,16.20
2023-05-17T14:23:38.059Z,16.13
2023-05-17T14:25:11.842Z,14.95
2023-05-17T14:26:44.650Z,17.58
2023-05-17T14:28:20.189Z,15.52
2023-05-17T14:29:52.368Z,15.30
2023-05-17T14:31:24.580Z,15.73
2023-05-17T14:32:57.131Z,15.90
2023-05-17T14:34:31.206Z,16.00
2023-05-17T14:36:04.457Z,16.25
2023-05-17T14:39:08.948Z,15.88
2023-05-17T14:40:41.210Z,17.67
2023-05-17T14:42:13.380Z,16.48
2023-05-17T14:43:45.843Z,15.65
2023-05-17T14:45:18.349Z,17.23
2023-05-17T14:46:50.541Z,17.02
2023-05-17T14:48:22.959Z,14.70
2023-05-17T14:49:55.297Z,17.98
2023-05-17T14:51:27.563Z,16.25
2023-05-17T14:52:59.814Z,16.27
2023-05-17T14:54:33.317Z,17.33
2023-05-17T14:56:05.945Z,16.35
2023-05-17T14:57:38.800Z,17.67
2023-05-17T14:59:11.058Z,18.83
2023-05-17T15:00:50.600Z,17.25
2023-05-17T15:02:24.470Z,16.98
2023-05-17T15:03:57.405Z,16.00
2023-05-17T15:05:29.890Z,17.50
2023-05-17T15:07:02.379Z,17.33
2023-05-17T15:08:35.041Z,17.02
2023-05-17T15:10:08.750Z,17.65
2023-05-17T15:11:41.109Z,16.30
2023-05-17T15:13:13.215Z,16.80
2023-05-17T15:14:46.909Z,16.95
2023-05-17T15:16:19.365Z,15.90
2023-05-17T15:17:52.239Z,16.73
2023-05-17T15:19:24.633Z,16.58
2023-05-17T15:20:56.977Z,17.05
2023-05-17T15:22:29.698Z,16.63
2023-05-17T15:24:01.930Z,15.98
2023-05-17T15:25:34.098Z,18.02
2023-05-17T15:27:06.919Z,17.80
2023-05-17T15:28:39.049Z,15.68
2023-05-17T15:30:13.432Z,16.27
2023-05-17T15:31:46.093Z,16.77
2023-05-17T15:33:20.685Z,16.50
2023-05-17T15:34:53.070Z,15.73
2023-05-17T15:36:25.182Z,17.17
2023-05-17T15:37:59.047Z,14.75
2023-05-17T15:39:31.330Z,15.82
2023-05-17T15:41:05.594Z,16.52
2023-05-17T15:42:37.752Z,17.15
2023-05-17T15:44:09.879Z,16.83
2023-05-17T15:45:42.064Z,16.75
2023-05-17T15:47:14.318Z,16.60
2023-05-17T15:48:46.928Z,15.75
2023-05-17T15:50:19.740Z,16.85
2023-05-17T15:51:51.860Z,15.05
2023-05-17T15:53:28.620Z,15.55
2023-05-17T15:55:00.996Z,15.27
2023-05-17T15:56:38.620Z,15.27
2023-05-17T15:58:11.337Z,15.23
2023-05-17T15:59:43.547Z,14.60
2023-05-17T16:01:15.945Z,14.60
2023-05-17T16:02:48.157Z,13.80
2023-05-17T16:04:20.417Z,13.25
2023-05-17T16:05:52.733Z,12.55
2023-05-17T16:07:26.773Z,13.02
2023-05-17T16:08:59.013Z,12.35
2023-05-17T16:10:31.159Z,12.00
2023-05-17T16:12:03.258Z,12.15
2023-05-17T16:13:35.486Z,12.18
2023-05-17T16:15:08.253Z,12.65
2023-05-17T16:16:40.482Z,11.98
2023-05-17T16:18:15.325Z,13.15
2023-05-17T16:19:47.690Z,11.82
2023-05-17T16:21:20.411Z,14.63
2023-05-17T16:22:54.169Z,14.77
2023-05-17T16:24:26.278Z,13.60
2023-05-17T16:25:58.585Z,11.63
2023-05-17T16:27:30.788Z,14.13
2023-05-17T16:29:03.090Z,8.27
2023-05-17T16:30:35.252Z,10.05
2023-05-17T16:32:08.559Z,5.95
2023-05-17T16:35:14.574Z,3.05
2023-05-17T16:36:48.330Z,2.10
2023-05-17T16:38:20.552Z,2.60
2023-05-17T16:39:52.846Z,2.00
2023-05-17T16:41:26.149Z,2.33
2023-05-17T16:44:30.364Z,2.92
2023-05-17T16:46:02.666Z,3.17
2023-05-17T16:47:37.649Z,2.90
2023-05-17T16:49:09.894Z,3.10
2023-05-17T16:50:42.625Z,3.33
2023-05-17T16:52:14.824Z,3.15
2023-05-17T16:53:47.177Z,3.47
2023-05-17T16:55:19.350Z,3.00
2023-05-17T16:56:51.808Z,3.50
2023-05-17T16:58:24.020Z,3.10
2023-05-17T16:59:56.900Z,2.58
2023-05-17T17:01:29.062Z,3.20
2023-05-17T17:03:02.640Z,2.85
2023-05-17T17:04:35.862Z,3.25
2023-05-17T17:06:08.081Z,3.33
2023-05-17T17:07:40.248Z,3.55
2023-05-17T17:09:12.746Z,3.65
2023-05-17T17:10:44.867Z,4.25
2023-05-17T17:12:24.758Z,10.88
2023-05-17T17:13:57.759Z,4.70
2023-05-17T17:15:29.992Z,9.35
2023-05-17T17:17:02.419Z,3.30
2023-05-17T17:18:34.668Z,3.53
2023-05-17T17:20:09.468Z,5.03
2023-05-17T17:21:42.747Z,14.25
2023-05-17T17:23:14.853Z,3.90
2023-05-17T17:24:47.020Z,7.35
2023-05-17T17:26:19.139Z,5.65
2023-05-17T17:27:53.101Z,15.40
2023-05-17T17:29:25.652Z,6.45
2023-05-17T17:30:58.937Z,7.35
2023-05-17T17:32:31.410Z,4.28
2023-05-17T17:34:03.680Z,3.70
2023-05-17T17:35:35.928Z,3.67
2023-05-17T17:37:08.080Z,4.93
2023-05-17T17:38:40.174Z,4.60
2023-05-17T17:40:13.367Z,5.25
2023-05-17T17:41:45.519Z,5.50
2023-05-17T17:43:17.719Z,5.38
2023-05-17T17:44:49.891Z,4.22
2023-05-17T17:46:22.167Z,4.88
2023-05-17T17:47:54.424Z,5.43
2023-05-17T17:49:26.627Z,5.03
2023-05-17T17:50:59.686Z,4.40
2023-05-17T17:52:31.844Z,5.43
2023-05-17T17:54:05.938Z,5.28
2023-05-17T17:55:38.134Z,5.50
2023-05-17T17:57:10.318Z,5.72
2023-05-17T17:58:42.425Z,6.25
2023-05-17T18:00:16.517Z,10.52
2023-05-17T18:01:48.815Z,12.52
2023-05-17T18:03:21.043Z,9.65
2023-05-17T18:04:53.268Z,7.43
2023-05-17T18:06:25.524Z,7.68
2023-05-17T18:07:57.792Z,7.82
2023-05-17T18:09:29.959Z,5.47
2023-05-17T18:11:02.898Z,4.85
2023-05-17T18:12:35.170Z,3.90
2023-05-17T18:14:08.184Z,3.50
2023-05-17T18:15:44.404Z,4.80
2023-05-17T18:17:16.535Z,4.30
2023-05-17T18:18:48.741Z,4.25
2023-05-17T18:20:23.123Z,4.43
2023-05-17T18:21:55.243Z,4.75
2023-05-17T18:23:27.334Z,4.38
2023-05-17T18:24:59.630Z,3.92
2023-05-17T18:26:31.841Z,4.63
2023-05-17T18:28:04.070Z,3.42
2023-05-17T18:29:36.446Z,3.80
2023-05-17T18:31:08.598Z,3.65
2023-05-17T18:32:41.036Z,4.05
2023-05-17T18:34:13.479Z,4.22
2023-05-17T18:35:48.021Z,4.03
2023-05-17T18:37:20.135Z,3.38
2023-05-17T18:38:52.869Z,3.40
2023-05-17T18:40:26.717Z,3.40
2023-05-17T18:41:58.941Z,3.50
2023-05-17T18:43:33.880Z,3.72
2023-05-17T18:45:07.200Z,4.30
2023-05-17T18:46:39.363Z,3.78
2023-05-17T18:48:11.596Z,3.83
2023-05-17T18:49:47.045Z,4.40
2023-05-17T18:51:19.213Z,3.72
2023-05-17T18:52:51.362Z,3.80
2023-05-17T18:54:23.869Z,3.83
2023-05-17T18:55:56.469Z,3.88
2023-05-17T18:59:14.284Z,4.55
2023-05-17T19:00:48.600Z,4.93
2023-05-17T19:02:21.051Z,4.10
2023-05-17T19:03:56.829Z,4.75
2023-05-17T19:05:29.157Z,4.80
2023-05-17T19:07:01.253Z,4.35
2023-05-17T19:08:33.602Z,4.57
2023-05-17T19:10:06.264Z,4.97
2023-05-17T19:11:38.522Z,4.75
2023-05-17T19:13:11.589Z,4.70
2023-05-17T19:14:43.873Z,4.78
2023-05-17T19:16:16.279Z,4.80
2023-05-17T19:17:48.825Z,5.05
2023-05-17T19:19:22.675Z,4.82
2023-05-17T19:20:54.978Z,5.20
2023-05-17T19:22:27.185Z,5.10
2023-05-17T19:23:59.345Z,4.47
2023-05-17T19:25:31.452Z,4.90
2023-05-17T19:27:03.630Z,4.68
2023-05-17T19:28:36.365Z,4.90
2023-05-17T19:30:09.400Z,5.63
2023-05-17T19:31:41.562Z,4.60
2023-05-17T19:33:13.935Z,6.32
2023-05-17T19:34:46.480Z,6.10
2023-05-17T19:36:18.652Z,6.07
2023-05-17T19:37:50.941Z,6.15
2023-05-17T19:39:23.063Z,5.65
2023-05-17T19:40:55.354Z,5.70
2023-05-17T19:42:27.961Z,5.13
2023-05-17T19:44:00.128Z,5.60
2023-05-17T19:45:32.290Z,5.07
2023-05-17T19:47:04.599Z,5.35
2023-05-17T19:48:37.010Z,5.28
2023-05-17T19:50:09.761Z,4.95
2023-05-17T19:51:41.918Z,5.45
2023-05-17T19:53:14.039Z,5.05
2023-05-17T19:54:46.319Z,5.22
2023-05-17T19:56:18.502Z,5.20
2023-05-17T19:57:51.173Z,4.85
2023-05-17T19:59:25.770Z,5.30
2023-05-17T20:00:58.005Z,4.90
2023-05-17T20:02:30.269Z,5.20
2023-05-17T20:04:02.642Z,4.70
2023-05-17T20:05:34.908Z,4.68
2023-05-17T20:07:07.285Z,5.22
2023-05-17T20:08:39.531Z,5.13
2023-05-17T20:10:11.962Z,4.72
2023-05-17T20:11:44.371Z,4.37
2023-05-17T20:13:17.646Z,4.90
2023-05-17T20:14:49.774Z,4.82
2023-05-17T20:16:22.026Z,5.70
2023-05-17T20:17:54.184Z,5.15
2023-05-17T20:19:26.907Z,4.90
2023-05-17T20:20:59.148Z,4.57
2023-05-17T20:22:32.226Z,5.13
2023-05-17T20:24:07.054Z,4.25
2023-05-17T20:25:41.431Z,4.25
2023-05-17T20:27:15.684Z,4.32
2023-05-17T20:28:47.825Z,4.32
2023-05-17T20:30:19.984Z,4.22
2023-05-17T20:31:52.211Z,3.88
2023-05-17T20:33:27.059Z,4.70
2023-05-17T20:34:59.242Z,4.40
2023-05-17T20:36:31.926Z,4.32
2023-05-17T20:38:04.069Z,3.47
2023-05-17T20:39:36.425Z,3.80
2023-05-17T20:41:08.903Z,3.42
2023-05-17T20:42:41.019Z,3.63
2023-05-17T20:44:19.908Z,3.97
2023-05-17T20:45:54.128Z,3.80
2023-05-17T20:47:26.500Z,3.83
2023-05-17T20:48:58.749Z,3.95
2023-05-17T20:50:31.136Z,3.80
2023-05-17T20:52:04.623Z,3.20
2023-05-17T20:55:12.361Z,3.65
2023-05-17T20:56:44.472Z,3.90
2023-05-17T20:58:16.885Z,3.15
2023-05-17T20:59:49.175Z,3.70
2023-05-17T21:01:21.784Z,4.00
2023-05-17T21:02:54.013Z,3.42
2023-05-17T21:04:26.508Z,4.15
2023-05-17T21:05:58.774Z,3.47
2023-05-17T21:07:30.941Z,3.70